Terminal Aerodrome Forecast
Issued by NWS Billings, MT

Home | Current Version | Previous Version | Text Only | Print | Product List | Glossary On
Versions: 1 2 3 4 5 6 7 8 9 10 11 12 13 14 15 16 17 18 19 20 21 22 23 24 25 26 27 28 29 30 31 32 33 34 35 36
000
FTUS45 KBYZ 031329 AAA
TAFBIL
TAF AMD
KBIL 031329Z 0313/0412 02012KT 4SM -SN SCT015 BKN040 OVC080
      TEMPO 0313/0314 2SM -SN BR SCT010 BKN020
     FM031500 02010KT P6SM -SN SCT014 BKN040 OVC080
     FM031700 33012KT P6SM SCT040 SCT100
     FM040200 30006KT P6SM SKC
     FM041100 22008KT P6SM VCFG FEW002 SCT060=

USA.gov is the U.S. government's official web portal to all federal, state and local government web resources and services.